sensor_id;sensor_type;location;lat;lon;timestamp;P1;durP1;ratioP1;P2;durP2;ratioP2
46757;SDS011;32509;47.750;-3.396;2023-09-19T00:01:08;7.53;;;2.08;;
46757;SDS011;32509;47.750;-3.396;2023-09-19T00:03:34;9.30;;;2.22;;
46757;SDS011;32509;47.750;-3.396;2023-09-19T00:06:04;2.88;;;1.10;;
46757;SDS011;32509;47.750;-3.396;2023-09-19T00:08:32;6.88;;;1.80;;
46757;SDS011;32509;47.750;-3.396;2023-09-19T00:10:58;5.05;;;2.13;;
46757;SDS011;32509;47.750;-3.396;2023-09-19T00:13:31;8.85;;;2.17;;
46757;SDS011;32509;47.750;-3.396;2023-09-19T00:15:57;7.32;;;2.47;;
46757;SDS011;32509;47.750;-3.396;2023-09-19T00:18:24;5.68;;;1.65;;
46757;SDS011;32509;47.750;-3.396;2023-09-19T00:20:57;6.40;;;1.88;;
46757;SDS011;32509;47.750;-3.396;2023-09-19T00:23:24;12.65;;;1.70;;
46757;SDS011;32509;47.750;-3.396;2023-09-19T00:25:50;5.80;;;1.58;;
46757;SDS011;32509;47.750;-3.396;2023-09-19T00:28:16;5.15;;;1.63;;
46757;SDS011;32509;47.750;-3.396;2023-09-19T00:30:44;6.68;;;1.40;;
46757;SDS011;32509;47.750;-3.396;2023-09-19T00:33:11;4.53;;;1.60;;
46757;SDS011;32509;47.750;-3.396;2023-09-19T00:35:46;6.85;;;1.83;;
46757;SDS011;32509;47.750;-3.396;2023-09-19T00:38:16;5.28;;;1.42;;
46757;SDS011;32509;47.750;-3.396;2023-09-19T00:40:44;7.72;;;2.00;;
46757;SDS011;32509;47.750;-3.396;2023-09-19T00:43:10;7.95;;;2.17;;
46757;SDS011;32509;47.750;-3.396;2023-09-19T00:45:36;3.88;;;1.77;;
46757;SDS011;32509;47.750;-3.396;2023-09-19T00:48:03;7.43;;;2.33;;
46757;SDS011;32509;47.750;-3.396;2023-09-19T00:50:31;7.00;;;1.73;;
46757;SDS011;32509;47.750;-3.396;2023-09-19T00:52:57;6.70;;;2.20;;
46757;SDS011;32509;47.750;-3.396;2023-09-19T00:55:24;8.25;;;1.80;;
46757;SDS011;32509;47.750;-3.396;2023-09-19T00:57:50;7.03;;;1.83;;
46757;SDS011;32509;47.750;-3.396;2023-09-19T01:00:17;5.63;;;1.55;;
46757;SDS011;32509;47.750;-3.396;2023-09-19T01:02:45;8.23;;;2.35;;
46757;SDS011;32509;47.750;-3.396;2023-09-19T01:05:11;7.57;;;1.40;;
46757;SDS011;32509;47.750;-3.396;2023-09-19T01:07:41;9.15;;;1.77;;
46757;SDS011;32509;47.750;-3.396;2023-09-19T01:10:28;7.07;;;1.60;;
46757;SDS011;32509;47.750;-3.396;2023-09-19T01:13:09;5.40;;;1.65;;
46757;SDS011;32509;47.750;-3.396;2023-09-19T01:26:06;8.95;;;2.08;;
46757;SDS011;32509;47.750;-3.396;2023-09-19T01:32:01;9.30;;;2.00;;
46757;SDS011;32509;47.750;-3.396;2023-09-19T01:37:18;6.85;;;1.95;;
46757;SDS011;32509;47.750;-3.396;2023-09-19T01:39:50;8.35;;;2.50;;
46757;SDS011;32509;47.750;-3.396;2023-09-19T01:48:33;9.05;;;2.22;;
46757;SDS011;32509;47.750;-3.396;2023-09-19T01:51:14;7.93;;;2.22;;
46757;SDS011;32509;47.750;-3.396;2023-09-19T01:56:53;11.38;;;2.17;;
46757;SDS011;32509;47.750;-3.396;2023-09-19T01:59:31;7.22;;;2.63;;
46757;SDS011;32509;47.750;-3.396;2023-09-19T02:02:02;13.18;;;2.13;;
46757;SDS011;32509;47.750;-3.396;2023-09-19T02:04:31;6.55;;;2.00;;
46757;SDS011;32509;47.750;-3.396;2023-09-19T02:06:59;12.98;;;2.45;;
46757;SDS011;32509;47.750;-3.396;2023-09-19T02:09:26;5.50;;;2.08;;
46757;SDS011;32509;47.750;-3.396;2023-09-19T02:11:52;7.47;;;1.77;;
46757;SDS011;32509;47.750;-3.396;2023-09-19T02:14:18;7.95;;;1.42;;
46757;SDS011;32509;47.750;-3.396;2023-09-19T02:16:44;4.63;;;2.20;;
46757;SDS011;32509;47.750;-3.396;2023-09-19T02:19:10;8.70;;;2.33;;
46757;SDS011;32509;47.750;-3.396;2023-09-19T02:21:37;7.38;;;1.70;;
46757;SDS011;32509;47.750;-3.396;2023-09-19T02:24:05;9.73;;;1.80;;
46757;SDS011;32509;47.750;-3.396;2023-09-19T02:26:33;11.95;;;2.30;;
46757;SDS011;32509;47.750;-3.396;2023-09-19T02:29:01;8.00;;;1.70;;
46757;SDS011;32509;47.750;-3.396;2023-09-19T02:31:30;12.50;;;3.15;;
46757;SDS011;32509;47.750;-3.396;2023-09-19T02:33:56;8.30;;;2.20;;
46757;SDS011;32509;47.750;-3.396;2023-09-19T02:36:21;8.40;;;2.45;;
46757;SDS011;32509;47.750;-3.396;2023-09-19T02:38:48;7.22;;;1.63;;
46757;SDS011;32509;47.750;-3.396;2023-09-19T02:41:14;7.70;;;2.67;;
46757;SDS011;32509;47.750;-3.396;2023-09-19T02:43:40;11.20;;;2.15;;
46757;SDS011;32509;47.750;-3.396;2023-09-19T02:46:08;6.15;;;2.13;;
46757;SDS011;32509;47.750;-3.396;2023-09-19T02:48:34;6.53;;;1.98;;
46757;SDS011;32509;47.750;-3.396;2023-09-19T02:51:01;7.55;;;2.92;;
46757;SDS011;32509;47.750;-3.396;2023-09-19T02:53:28;5.43;;;2.15;;
46757;SDS011;32509;47.750;-3.396;2023-09-19T02:55:56;14.48;;;2.00;;
46757;SDS011;32509;47.750;-3.396;2023-09-19T02:58:21;8.40;;;2.65;;
46757;SDS011;32509;47.750;-3.396;2023-09-19T03:00:48;9.68;;;2.10;;
46757;SDS011;32509;47.750;-3.396;2023-09-19T03:03:16;7.18;;;2.00;;
46757;SDS011;32509;47.750;-3.396;2023-09-19T03:05:42;6.38;;;1.95;;
46757;SDS011;32509;47.750;-3.396;2023-09-19T03:08:12;6.78;;;2.10;;
46757;SDS011;32509;47.750;-3.396;2023-09-19T03:10:41;9.43;;;2.72;;
46757;SDS011;32509;47.750;-3.396;2023-09-19T03:13:07;6.72;;;1.95;;
46757;SDS011;32509;47.750;-3.396;2023-09-19T03:15:35;7.35;;;1.95;;
46757;SDS011;32509;47.750;-3.396;2023-09-19T03:18:04;10.80;;;1.98;;
46757;SDS011;32509;47.750;-3.396;2023-09-19T03:20:30;6.10;;;2.15;;
46757;SDS011;32509;47.750;-3.396;2023-09-19T03:22:55;11.73;;;2.38;;
46757;SDS011;32509;47.750;-3.396;2023-09-19T03:25:22;5.28;;;2.50;;
46757;SDS011;32509;47.750;-3.396;2023-09-19T03:27:48;14.18;;;2.60;;
46757;SDS011;32509;47.750;-3.396;2023-09-19T03:30:14;7.25;;;1.85;;
46757;SDS011;32509;47.750;-3.396;2023-09-19T03:32:44;5.35;;;1.85;;
46757;SDS011;32509;47.750;-3.396;2023-09-19T03:35:15;9.23;;;2.83;;
46757;SDS011;32509;47.750;-3.396;2023-09-19T03:37:42;9.20;;;1.95;;
46757;SDS011;32509;47.750;-3.396;2023-09-19T03:40:11;8.25;;;2.00;;
46757;SDS011;32509;47.750;-3.396;2023-09-19T03:42:40;10.90;;;3.33;;
46757;SDS011;32509;47.750;-3.396;2023-09-19T03:45:07;9.13;;;1.80;;
46757;SDS011;32509;47.750;-3.396;2023-09-19T03:47:37;7.97;;;2.00;;
46757;SDS011;32509;47.750;-3.396;2023-09-19T03:50:04;9.20;;;1.85;;
46757;SDS011;32509;47.750;-3.396;2023-09-19T03:52:32;6.07;;;1.80;;
46757;SDS011;32509;47.750;-3.396;2023-09-19T03:54:58;9.02;;;1.80;;
46757;SDS011;32509;47.750;-3.396;2023-09-19T03:57:23;9.18;;;2.00;;
46757;SDS011;32509;47.750;-3.396;2023-09-19T03:59:49;14.38;;;3.53;;
46757;SDS011;32509;47.750;-3.396;2023-09-19T04:02:18;7.90;;;2.28;;
46757;SDS011;32509;47.750;-3.396;2023-09-19T04:04:50;15.35;;;2.15;;
46757;SDS011;32509;47.750;-3.396;2023-09-19T04:07:17;8.90;;;2.42;;
46757;SDS011;32509;47.750;-3.396;2023-09-19T04:09:44;6.30;;;1.95;;
46757;SDS011;32509;47.750;-3.396;2023-09-19T04:12:10;7.43;;;2.15;;
46757;SDS011;32509;47.750;-3.396;2023-09-19T04:14:37;6.50;;;2.72;;
46757;SDS011;32509;47.750;-3.396;2023-09-19T04:17:03;5.70;;;1.77;;
46757;SDS011;32509;47.750;-3.396;2023-09-19T04:19:30;9.52;;;2.53;;
46757;SDS011;32509;47.750;-3.396;2023-09-19T04:21:56;10.95;;;3.05;;
46757;SDS011;32509;47.750;-3.396;2023-09-19T04:24:22;8.35;;;2.40;;
46757;SDS011;32509;47.750;-3.396;2023-09-19T04:26:48;8.90;;;2.17;;
46757;SDS011;32509;47.750;-3.396;2023-09-19T04:29:13;8.05;;;2.38;;
46757;SDS011;32509;47.750;-3.396;2023-09-19T04:31:40;14.10;;;2.65;;
46757;SDS011;32509;47.750;-3.396;2023-09-19T04:34:09;9.68;;;2.40;;
46757;SDS011;32509;47.750;-3.396;2023-09-19T04:36:35;9.63;;;2.53;;
46757;SDS011;32509;47.750;-3.396;2023-09-19T04:39:02;8.88;;;2.55;;
46757;SDS011;32509;47.750;-3.396;2023-09-19T04:41:32;3.97;;;1.50;;
46757;SDS011;32509;47.750;-3.396;2023-09-19T04:43:59;11.65;;;3.10;;
46757;SDS011;32509;47.750;-3.396;2023-09-19T04:46:25;5.82;;;2.13;;
46757;SDS011;32509;47.750;-3.396;2023-09-19T04:48:51;8.75;;;2.83;;
46757;SDS011;32509;47.750;-3.396;2023-09-19T04:51:16;11.13;;;2.20;;
46757;SDS011;32509;47.750;-3.396;2023-09-19T04:53:43;8.55;;;2.10;;
46757;SDS011;32509;47.750;-3.396;2023-09-19T04:56:09;12.75;;;2.30;;
46757;SDS011;32509;47.750;-3.396;2023-09-19T04:58:35;5.90;;;2.45;;
46757;SDS011;32509;47.750;-3.396;2023-09-19T05:01:01;8.95;;;2.75;;
46757;SDS011;32509;47.750;-3.396;2023-09-19T05:03:27;10.18;;;3.85;;
46757;SDS011;32509;47.750;-3.396;2023-09-19T05:05:54;7.22;;;1.95;;
46757;SDS011;32509;47.750;-3.396;2023-09-19T05:08:20;10.88;;;2.15;;
46757;SDS011;32509;47.750;-3.396;2023-09-19T05:10:47;11.40;;;2.72;;
46757;SDS011;32509;47.750;-3.396;2023-09-19T05:13:14;6.93;;;2.78;;
46757;SDS011;32509;47.750;-3.396;2023-09-19T05:15:40;5.20;;;1.50;;
46757;SDS011;32509;47.750;-3.396;2023-09-19T05:18:06;9.23;;;3.05;;
46757;SDS011;32509;47.750;-3.396;2023-09-19T05:20:32;10.50;;;1.95;;
46757;SDS011;32509;47.750;-3.396;2023-09-19T05:23:01;5.50;;;1.77;;
46757;SDS011;32509;47.750;-3.396;2023-09-19T05:25:33;7.32;;;2.28;;
46757;SDS011;32509;47.750;-3.396;2023-09-19T05:28:04;10.45;;;2.88;;
46757;SDS011;32509;47.750;-3.396;2023-09-19T05:30:34;9.93;;;2.38;;
46757;SDS011;32509;47.750;-3.396;2023-09-19T05:33:08;9.88;;;2.50;;
46757;SDS011;32509;47.750;-3.396;2023-09-19T05:35:34;8.27;;;2.28;;
46757;SDS011;32509;47.750;-3.396;2023-09-19T05:38:02;8.98;;;2.10;;
46757;SDS011;32509;47.750;-3.396;2023-09-19T05:40:30;9.13;;;3.10;;
46757;SDS011;32509;47.750;-3.396;2023-09-19T05:42:56;7.78;;;2.10;;
46757;SDS011;32509;47.750;-3.396;2023-09-19T05:45:22;11.52;;;1.90;;
46757;SDS011;32509;47.750;-3.396;2023-09-19T05:47:48;10.45;;;2.35;;
46757;SDS011;32509;47.750;-3.396;2023-09-19T05:50:16;9.38;;;2.08;;
46757;SDS011;32509;47.750;-3.396;2023-09-19T05:52:43;10.57;;;2.42;;
46757;SDS011;32509;47.750;-3.396;2023-09-19T05:55:17;7.40;;;2.25;;
46757;SDS011;32509;47.750;-3.396;2023-09-19T05:57:43;11.60;;;2.65;;
46757;SDS011;32509;47.750;-3.396;2023-09-19T06:00:21;6.40;;;2.20;;
46757;SDS011;32509;47.750;-3.396;2023-09-19T06:02:55;10.35;;;2.33;;
46757;SDS011;32509;47.750;-3.396;2023-09-19T06:05:22;7.85;;;2.67;;
46757;SDS011;32509;47.750;-3.396;2023-09-19T06:07:49;11.48;;;2.35;;
46757;SDS011;32509;47.750;-3.396;2023-09-19T06:10:15;7.55;;;2.38;;
46757;SDS011;32509;47.750;-3.396;2023-09-19T06:12:42;5.63;;;1.70;;
46757;SDS011;32509;47.750;-3.396;2023-09-19T06:15:15;5.88;;;1.92;;
46757;SDS011;32509;47.750;-3.396;2023-09-19T06:17:50;14.70;;;2.00;;
46757;SDS011;32509;47.750;-3.396;2023-09-19T06:20:20;6.05;;;2.17;;
46757;SDS011;32509;47.750;-3.396;2023-09-19T06:22:47;8.20;;;2.95;;
46757;SDS011;32509;47.750;-3.396;2023-09-19T06:25:14;14.82;;;2.80;;
46757;SDS011;32509;47.750;-3.396;2023-09-19T06:27:51;6.93;;;2.53;;
46757;SDS011;32509;47.750;-3.396;2023-09-19T06:30:19;8.60;;;1.98;;
46757;SDS011;32509;47.750;-3.396;2023-09-19T06:32:45;17.52;;;3.53;;
46757;SDS011;32509;47.750;-3.396;2023-09-19T06:35:11;8.88;;;1.63;;
46757;SDS011;32509;47.750;-3.396;2023-09-19T06:37:38;7.60;;;1.92;;
46757;SDS011;32509;47.750;-3.396;2023-09-19T06:40:10;7.90;;;2.22;;
46757;SDS011;32509;47.750;-3.396;2023-09-19T06:42:41;11.38;;;2.72;;
46757;SDS011;32509;47.750;-3.396;2023-09-19T06:45:09;12.75;;;2.70;;
46757;SDS011;32509;47.750;-3.396;2023-09-19T06:47:42;7.75;;;2.45;;
46757;SDS011;32509;47.750;-3.396;2023-09-19T06:50:14;12.43;;;2.47;;
46757;SDS011;32509;47.750;-3.396;2023-09-19T06:52:40;7.65;;;2.42;;
46757;SDS011;32509;47.750;-3.396;2023-09-19T06:55:07;12.25;;;3.15;;
46757;SDS011;32509;47.750;-3.396;2023-09-19T06:57:34;12.80;;;3.15;;
46757;SDS011;32509;47.750;-3.396;2023-09-19T07:00:00;7.95;;;1.80;;
46757;SDS011;32509;47.750;-3.396;2023-09-19T07:02:27;11.10;;;3.03;;
46757;SDS011;32509;47.750;-3.396;2023-09-19T07:04:52;7.63;;;2.42;;
46757;SDS011;32509;47.750;-3.396;2023-09-19T07:07:18;11.57;;;2.88;;
46757;SDS011;32509;47.750;-3.396;2023-09-19T07:09:44;10.45;;;2.97;;
46757;SDS011;32509;47.750;-3.396;2023-09-19T07:12:10;11.10;;;2.80;;
46757;SDS011;32509;47.750;-3.396;2023-09-19T07:14:37;10.57;;;3.17;;
46757;SDS011;32509;47.750;-3.396;2023-09-19T07:17:02;8.43;;;2.40;;
46757;SDS011;32509;47.750;-3.396;2023-09-19T07:19:29;9.07;;;2.72;;
46757;SDS011;32509;47.750;-3.396;2023-09-19T07:21:56;7.97;;;2.42;;
46757;SDS011;32509;47.750;-3.396;2023-09-19T07:24:24;8.20;;;3.25;;
46757;SDS011;32509;47.750;-3.396;2023-09-19T07:26:52;9.30;;;2.60;;
46757;SDS011;32509;47.750;-3.396;2023-09-19T07:29:18;7.60;;;2.45;;
46757;SDS011;32509;47.750;-3.396;2023-09-19T07:31:44;7.35;;;3.10;;
46757;SDS011;32509;47.750;-3.396;2023-09-19T07:34:09;7.80;;;2.72;;
46757;SDS011;32509;47.750;-3.396;2023-09-19T07:36:35;10.63;;;2.47;;
46757;SDS011;32509;47.750;-3.396;2023-09-19T07:39:03;9.65;;;2.15;;
46757;SDS011;32509;47.750;-3.396;2023-09-19T07:41:32;10.50;;;2.53;;
46757;SDS011;32509;47.750;-3.396;2023-09-19T07:43:58;9.63;;;3.08;;
46757;SDS011;32509;47.750;-3.396;2023-09-19T07:46:24;17.15;;;4.10;;
46757;SDS011;32509;47.750;-3.396;2023-09-19T07:48:51;14.10;;;3.05;;
46757;SDS011;32509;47.750;-3.396;2023-09-19T07:51:17;9.60;;;2.33;;
46757;SDS011;32509;47.750;-3.396;2023-09-19T07:53:42;12.88;;;3.00;;
46757;SDS011;32509;47.750;-3.396;2023-09-19T07:56:09;14.70;;;3.55;;
46757;SDS011;32509;47.750;-3.396;2023-09-19T07:58:35;11.85;;;2.47;;
46757;SDS011;32509;47.750;-3.396;2023-09-19T08:01:09;10.32;;;2.38;;
46757;SDS011;32509;47.750;-3.396;2023-09-19T08:03:35;7.78;;;2.80;;
46757;SDS011;32509;47.750;-3.396;2023-09-19T08:06:09;11.30;;;3.03;;
46757;SDS011;32509;47.750;-3.396;2023-09-19T08:08:35;14.05;;;3.05;;
46757;SDS011;32509;47.750;-3.396;2023-09-19T08:11:04;13.32;;;2.85;;
46757;SDS011;32509;47.750;-3.396;2023-09-19T08:13:37;7.53;;;2.35;;
46757;SDS011;32509;47.750;-3.396;2023-09-19T08:16:12;6.85;;;2.17;;
46757;SDS011;32509;47.750;-3.396;2023-09-19T08:18:40;13.55;;;4.32;;
46757;SDS011;32509;47.750;-3.396;2023-09-19T08:21:06;15.45;;;3.55;;
46757;SDS011;32509;47.750;-3.396;2023-09-19T08:23:36;9.43;;;2.45;;
46757;SDS011;32509;47.750;-3.396;2023-09-19T08:26:03;11.65;;;2.60;;
46757;SDS011;32509;47.750;-3.396;2023-09-19T08:28:33;16.38;;;3.58;;
46757;SDS011;32509;47.750;-3.396;2023-09-19T08:31:03;11.23;;;2.47;;
46757;SDS011;32509;47.750;-3.396;2023-09-19T08:33:33;8.75;;;2.88;;
46757;SDS011;32509;47.750;-3.396;2023-09-19T08:36:00;11.93;;;2.45;;
46757;SDS011;32509;47.750;-3.396;2023-09-19T08:38:30;14.00;;;3.20;;
46757;SDS011;32509;47.750;-3.396;2023-09-19T08:40:58;10.05;;;3.08;;
46757;SDS011;32509;47.750;-3.396;2023-09-19T08:43:24;13.05;;;3.53;;
46757;SDS011;32509;47.750;-3.396;2023-09-19T08:45:53;16.08;;;3.05;;
46757;SDS011;32509;47.750;-3.396;2023-09-19T08:48:39;17.42;;;4.63;;
46757;SDS011;32509;47.750;-3.396;2023-09-19T08:51:17;11.52;;;3.22;;
46757;SDS011;32509;47.750;-3.396;2023-09-19T08:56:38;13.10;;;3.20;;
46757;SDS011;32509;47.750;-3.396;2023-09-19T08:59:05;13.27;;;3.83;;
46757;SDS011;32509;47.750;-3.396;2023-09-19T09:01:36;10.85;;;2.85;;
46757;SDS011;32509;47.750;-3.396;2023-09-19T09:04:03;14.00;;;2.75;;
46757;SDS011;32509;47.750;-3.396;2023-09-19T09:06:34;9.65;;;3.35;;
46757;SDS011;32509;47.750;-3.396;2023-09-19T09:09:01;12.07;;;2.83;;
46757;SDS011;32509;47.750;-3.396;2023-09-19T09:11:28;11.65;;;2.90;;
46757;SDS011;32509;47.750;-3.396;2023-09-19T09:13:54;10.23;;;2.88;;
46757;SDS011;32509;47.750;-3.396;2023-09-19T09:16:21;10.00;;;2.85;;
46757;SDS011;32509;47.750;-3.396;2023-09-19T09:18:51;10.60;;;2.70;;
46757;SDS011;32509;47.750;-3.396;2023-09-19T09:21:20;10.23;;;2.80;;
46757;SDS011;32509;47.750;-3.396;2023-09-19T09:23:47;8.95;;;3.47;;
46757;SDS011;32509;47.750;-3.396;2023-09-19T09:26:14;13.63;;;2.90;;
46757;SDS011;32509;47.750;-3.396;2023-09-19T09:28:44;9.00;;;3.00;;
46757;SDS011;32509;47.750;-3.396;2023-09-19T09:31:22;11.82;;;2.78;;
46757;SDS011;32509;47.750;-3.396;2023-09-19T09:33:53;13.80;;;3.70;;
46757;SDS011;32509;47.750;-3.396;2023-09-19T09:36:33;13.10;;;3.05;;
46757;SDS011;32509;47.750;-3.396;2023-09-19T09:39:03;17.95;;;4.15;;
46757;SDS011;32509;47.750;-3.396;2023-09-19T09:41:41;14.73;;;3.40;;
46757;SDS011;32509;47.750;-3.396;2023-09-19T09:44:17;12.13;;;3.40;;
46757;SDS011;32509;47.750;-3.396;2023-09-19T09:46:45;14.15;;;2.70;;
46757;SDS011;32509;47.750;-3.396;2023-09-19T09:49:15;13.55;;;4.15;;
46757;SDS011;32509;47.750;-3.396;2023-09-19T09:52:02;12.93;;;4.25;;
46757;SDS011;32509;47.750;-3.396;2023-09-19T09:55:02;9.07;;;2.83;;
46757;SDS011;32509;47.750;-3.396;2023-09-19T09:57:32;5.65;;;3.08;;
46757;SDS011;32509;47.750;-3.396;2023-09-19T09:59:59;10.00;;;3.20;;
46757;SDS011;32509;47.750;-3.396;2023-09-19T10:02:38;13.35;;;3.83;;
46757;SDS011;32509;47.750;-3.396;2023-09-19T10:05:17;19.48;;;4.03;;
46757;SDS011;32509;47.750;-3.396;2023-09-19T10:07:47;6.20;;;2.15;;
46757;SDS011;32509;47.750;-3.396;2023-09-19T10:10:29;10.50;;;3.38;;
46757;SDS011;32509;47.750;-3.396;2023-09-19T10:13:03;11.77;;;3.10;;
46757;SDS011;32509;47.750;-3.396;2023-09-19T10:15:33;13.27;;;2.60;;
46757;SDS011;32509;47.750;-3.396;2023-09-19T10:18:01;8.98;;;2.90;;
46757;SDS011;32509;47.750;-3.396;2023-09-19T10:20:30;7.93;;;2.67;;
46757;SDS011;32509;47.750;-3.396;2023-09-19T10:23:00;11.57;;;3.30;;
46757;SDS011;32509;47.750;-3.396;2023-09-19T10:25:35;14.38;;;3.55;;
46757;SDS011;32509;47.750;-3.396;2023-09-19T10:28:03;13.40;;;2.83;;
46757;SDS011;32509;47.750;-3.396;2023-09-19T10:30:36;10.38;;;3.38;;
46757;SDS011;32509;47.750;-3.396;2023-09-19T10:33:13;13.95;;;3.33;;
46757;SDS011;32509;47.750;-3.396;2023-09-19T10:35:47;9.48;;;3.30;;
46757;SDS011;32509;47.750;-3.396;2023-09-19T10:38:14;8.27;;;2.95;;
46757;SDS011;32509;47.750;-3.396;2023-09-19T10:40:44;11.05;;;2.90;;
46757;SDS011;32509;47.750;-3.396;2023-09-19T10:43:16;8.23;;;2.40;;
46757;SDS011;32509;47.750;-3.396;2023-09-19T10:45:44;11.95;;;2.90;;
46757;SDS011;32509;47.750;-3.396;2023-09-19T10:48:17;8.75;;;3.13;;
46757;SDS011;32509;47.750;-3.396;2023-09-19T10:53:24;8.45;;;3.30;;
46757;SDS011;32509;47.750;-3.396;2023-09-19T10:55:54;12.40;;;4.18;;
46757;SDS011;32509;47.750;-3.396;2023-09-19T10:58:28;11.07;;;3.40;;
46757;SDS011;32509;47.750;-3.396;2023-09-19T11:00:59;10.10;;;3.70;;
46757;SDS011;32509;47.750;-3.396;2023-09-19T11:03:37;12.75;;;3.08;;
46757;SDS011;32509;47.750;-3.396;2023-09-19T11:06:15;15.40;;;4.30;;
46757;SDS011;32509;47.750;-3.396;2023-09-19T11:14:14;10.45;;;3.50;;
46757;SDS011;32509;47.750;-3.396;2023-09-19T11:30:44;10.97;;;3.27;;
46757;SDS011;32509;47.750;-3.396;2023-09-19T11:33:19;11.98;;;4.10;;
46757;SDS011;32509;47.750;-3.396;2023-09-19T11:49:17;12.93;;;4.20;;
46757;SDS011;32509;47.750;-3.396;2023-09-19T11:51:50;14.90;;;3.50;;
46757;SDS011;32509;47.750;-3.396;2023-09-19T11:54:19;17.63;;;7.25;;
46757;SDS011;32509;47.750;-3.396;2023-09-19T11:56:49;14.02;;;4.68;;
46757;SDS011;32509;47.750;-3.396;2023-09-19T11:59:26;14.80;;;3.97;;
46757;SDS011;32509;47.750;-3.396;2023-09-19T12:02:03;18.33;;;5.10;;
46757;SDS011;32509;47.750;-3.396;2023-09-19T12:07:03;12.68;;;5.10;;
46757;SDS011;32509;47.750;-3.396;2023-09-19T12:09:36;18.73;;;4.93;;
46757;SDS011;32509;47.750;-3.396;2023-09-19T12:12:04;14.00;;;4.55;;
46757;SDS011;32509;47.750;-3.396;2023-09-19T12:14:30;16.00;;;5.18;;
46757;SDS011;32509;47.750;-3.396;2023-09-19T12:16:56;16.95;;;4.38;;
46757;SDS011;32509;47.750;-3.396;2023-09-19T12:19:23;12.82;;;3.70;;
46757;SDS011;32509;47.750;-3.396;2023-09-19T12:21:53;8.55;;;3.95;;
46757;SDS011;32509;47.750;-3.396;2023-09-19T12:24:29;15.95;;;5.03;;
46757;SDS011;32509;47.750;-3.396;2023-09-19T12:27:05;15.23;;;4.05;;
46757;SDS011;32509;47.750;-3.396;2023-09-19T12:29:41;15.13;;;4.72;;
46757;SDS011;32509;47.750;-3.396;2023-09-19T12:32:08;21.85;;;4.80;;
46757;SDS011;32509;47.750;-3.396;2023-09-19T12:34:34;17.02;;;5.45;;
46757;SDS011;32509;47.750;-3.396;2023-09-19T12:37:04;15.15;;;4.70;;
46757;SDS011;32509;47.750;-3.396;2023-09-19T12:39:41;16.55;;;4.70;;
46757;SDS011;32509;47.750;-3.396;2023-09-19T12:42:13;15.93;;;4.85;;
46757;SDS011;32509;47.750;-3.396;2023-09-19T12:44:40;17.77;;;8.20;;
46757;SDS011;32509;47.750;-3.396;2023-09-19T12:47:15;13.85;;;4.00;;
46757;SDS011;32509;47.750;-3.396;2023-09-19T12:52:50;21.77;;;4.28;;
46757;SDS011;32509;47.750;-3.396;2023-09-19T12:55:24;12.55;;;4.20;;
46757;SDS011;32509;47.750;-3.396;2023-09-19T13:00:38;12.70;;;5.20;;
46757;SDS011;32509;47.750;-3.396;2023-09-19T13:03:33;15.77;;;4.10;;
46757;SDS011;32509;47.750;-3.396;2023-09-19T13:06:03;14.23;;;5.00;;
46757;SDS011;32509;47.750;-3.396;2023-09-19T13:08:36;12.60;;;4.88;;
46757;SDS011;32509;47.750;-3.396;2023-09-19T13:13:32;10.13;;;3.65;;
46757;SDS011;32509;47.750;-3.396;2023-09-19T13:15:58;16.40;;;5.25;;
46757;SDS011;32509;47.750;-3.396;2023-09-19T13:18:26;17.10;;;4.57;;
46757;SDS011;32509;47.750;-3.396;2023-09-19T13:21:05;13.77;;;4.28;;
46757;SDS011;32509;47.750;-3.396;2023-09-19T13:23:48;12.38;;;5.60;;
46757;SDS011;32509;47.750;-3.396;2023-09-19T13:26:18;10.82;;;4.47;;
46757;SDS011;32509;47.750;-3.396;2023-09-19T13:28:44;11.48;;;3.90;;
46757;SDS011;32509;47.750;-3.396;2023-09-19T13:31:12;16.63;;;5.32;;
46757;SDS011;32509;47.750;-3.396;2023-09-19T13:33:45;12.98;;;3.80;;
46757;SDS011;32509;47.750;-3.396;2023-09-19T13:36:12;11.23;;;4.03;;
46757;SDS011;32509;47.750;-3.396;2023-09-19T13:38:41;14.00;;;4.43;;
46757;SDS011;32509;47.750;-3.396;2023-09-19T13:41:11;15.80;;;4.22;;
46757;SDS011;32509;47.750;-3.396;2023-09-19T13:43:38;11.02;;;4.05;;
46757;SDS011;32509;47.750;-3.396;2023-09-19T13:46:05;14.38;;;4.97;;
46757;SDS011;32509;47.750;-3.396;2023-09-19T13:48:37;10.48;;;3.97;;
46757;SDS011;32509;47.750;-3.396;2023-09-19T13:51:03;15.48;;;4.22;;
46757;SDS011;32509;47.750;-3.396;2023-09-19T13:53:29;14.95;;;5.50;;
46757;SDS011;32509;47.750;-3.396;2023-09-19T13:55:55;10.55;;;4.15;;
46757;SDS011;32509;47.750;-3.396;2023-09-19T13:58:21;11.68;;;3.88;;
46757;SDS011;32509;47.750;-3.396;2023-09-19T14:00:48;10.52;;;3.67;;
46757;SDS011;32509;47.750;-3.396;2023-09-19T14:03:14;16.02;;;4.60;;
46757;SDS011;32509;47.750;-3.396;2023-09-19T14:05:39;14.07;;;4.13;;
46757;SDS011;32509;47.750;-3.396;2023-09-19T14:08:07;11.25;;;3.47;;
46757;SDS011;32509;47.750;-3.396;2023-09-19T14:10:33;14.82;;;3.88;;
46757;SDS011;32509;47.750;-3.396;2023-09-19T14:13:00;18.52;;;4.57;;
46757;SDS011;32509;47.750;-3.396;2023-09-19T14:15:26;22.25;;;4.80;;
46757;SDS011;32509;47.750;-3.396;2023-09-19T14:17:56;8.68;;;4.15;;
46757;SDS011;32509;47.750;-3.396;2023-09-19T14:20:22;8.75;;;3.15;;
46757;SDS011;32509;47.750;-3.396;2023-09-19T14:22:48;15.52;;;3.63;;
46757;SDS011;32509;47.750;-3.396;2023-09-19T14:25:14;13.85;;;3.58;;
46757;SDS011;32509;47.750;-3.396;2023-09-19T14:27:40;10.60;;;3.00;;
46757;SDS011;32509;47.750;-3.396;2023-09-19T14:30:06;8.82;;;3.75;;
46757;SDS011;32509;47.750;-3.396;2023-09-19T14:32:34;7.72;;;2.78;;
46757;SDS011;32509;47.750;-3.396;2023-09-19T14:35:01;12.95;;;3.72;;
46757;SDS011;32509;47.750;-3.396;2023-09-19T14:37:27;13.02;;;3.30;;
46757;SDS011;32509;47.750;-3.396;2023-09-19T14:39:53;11.70;;;3.60;;
46757;SDS011;32509;47.750;-3.396;2023-09-19T14:42:19;17.40;;;4.22;;
46757;SDS011;32509;47.750;-3.396;2023-09-19T14:44:45;8.27;;;2.97;;
46757;SDS011;32509;47.750;-3.396;2023-09-19T14:47:13;16.00;;;4.25;;
46757;SDS011;32509;47.750;-3.396;2023-09-19T14:49:39;7.28;;;3.25;;
46757;SDS011;32509;47.750;-3.396;2023-09-19T14:52:06;15.93;;;4.00;;
46757;SDS011;32509;47.750;-3.396;2023-09-19T14:54:33;15.05;;;3.85;;
46757;SDS011;32509;47.750;-3.396;2023-09-19T14:57:00;10.50;;;4.40;;
46757;SDS011;32509;47.750;-3.396;2023-09-19T14:59:33;6.38;;;3.72;;
46757;SDS011;32509;47.750;-3.396;2023-09-19T15:02:03;14.77;;;4.28;;
46757;SDS011;32509;47.750;-3.396;2023-09-19T15:04:30;13.45;;;4.18;;
46757;SDS011;32509;47.750;-3.396;2023-09-19T15:06:55;12.20;;;4.20;;
46757;SDS011;32509;47.750;-3.396;2023-09-19T15:09:22;15.20;;;4.20;;
46757;SDS011;32509;47.750;-3.396;2023-09-19T15:11:51;7.50;;;3.05;;
46757;SDS011;32509;47.750;-3.396;2023-09-19T15:14:18;13.05;;;4.18;;
46757;SDS011;32509;47.750;-3.396;2023-09-19T15:16:44;9.50;;;4.72;;
46757;SDS011;32509;47.750;-3.396;2023-09-19T15:19:09;9.05;;;2.90;;
46757;SDS011;32509;47.750;-3.396;2023-09-19T15:21:35;10.57;;;3.90;;
46757;SDS011;32509;47.750;-3.396;2023-09-19T15:24:05;12.68;;;4.15;;
46757;SDS011;32509;47.750;-3.396;2023-09-19T15:26:35;18.02;;;4.75;;
46757;SDS011;32509;47.750;-3.396;2023-09-19T15:29:08;16.33;;;5.22;;
46757;SDS011;32509;47.750;-3.396;2023-09-19T15:31:35;13.00;;;4.65;;
46757;SDS011;32509;47.750;-3.396;2023-09-19T15:34:01;10.35;;;3.53;;
46757;SDS011;32509;47.750;-3.396;2023-09-19T15:36:32;11.88;;;3.58;;
46757;SDS011;32509;47.750;-3.396;2023-09-19T15:39:05;14.45;;;4.05;;
46757;SDS011;32509;47.750;-3.396;2023-09-19T15:41:34;12.75;;;3.60;;
46757;SDS011;32509;47.750;-3.396;2023-09-19T15:44:02;8.88;;;3.17;;
46757;SDS011;32509;47.750;-3.396;2023-09-19T15:46:29;6.85;;;3.15;;
46757;SDS011;32509;47.750;-3.396;2023-09-19T15:48:56;9.75;;;3.53;;
46757;SDS011;32509;47.750;-3.396;2023-09-19T15:51:26;6.70;;;2.85;;
46757;SDS011;32509;47.750;-3.396;2023-09-19T15:53:52;6.38;;;2.78;;